sensor_id;sensor_type;location;lat;lon;timestamp;P1;durP1;ratioP1;P2;durP2;ratioP2
37355;SDS011;48747;50.250;18.848;2023-05-07T00:01:35;15.98;;;11.30;;
37355;SDS011;48747;50.250;18.848;2023-05-07T00:03:41;18.65;;;10.93;;
37355;SDS011;48747;50.250;18.848;2023-05-07T00:05:48;19.52;;;11.78;;
37355;SDS011;48747;50.250;18.848;2023-05-07T00:07:55;19.45;;;12.58;;
37355;SDS011;48747;50.250;18.848;2023-05-07T00:10:02;20.62;;;13.28;;
37355;SDS011;48747;50.250;18.848;2023-05-07T00:12:07;19.80;;;12.98;;
37355;SDS011;48747;50.250;18.848;2023-05-07T00:14:15;19.40;;;11.85;;
37355;SDS011;48747;50.250;18.848;2023-05-07T00:16:22;18.90;;;11.75;;
37355;SDS011;48747;50.250;18.848;2023-05-07T00:18:33;18.93;;;12.60;;
37355;SDS011;48747;50.250;18.848;2023-05-07T00:20:42;21.33;;;13.50;;
37355;SDS011;48747;50.250;18.848;2023-05-07T00:22:46;21.82;;;13.78;;
37355;SDS011;48747;50.250;18.848;2023-05-07T00:24:49;22.00;;;14.23;;
37355;SDS011;48747;50.250;18.848;2023-05-07T00:26:53;21.40;;;14.13;;
37355;SDS011;48747;50.250;18.848;2023-05-07T00:29:03;19.70;;;13.65;;
37355;SDS011;48747;50.250;18.848;2023-05-07T00:31:02;21.42;;;14.15;;
37355;SDS011;48747;50.250;18.848;2023-05-07T00:33:05;20.72;;;13.15;;
37355;SDS011;48747;50.250;18.848;2023-05-07T00:37:20;22.13;;;14.20;;
37355;SDS011;48747;50.250;18.848;2023-05-07T00:39:25;21.73;;;14.65;;
37355;SDS011;48747;50.250;18.848;2023-05-07T00:41:35;21.77;;;13.72;;
37355;SDS011;48747;50.250;18.848;2023-05-07T00:43:34;22.67;;;14.13;;
37355;SDS011;48747;50.250;18.848;2023-05-07T00:45:54;21.62;;;13.53;;
37355;SDS011;48747;50.250;18.848;2023-05-07T00:47:55;22.87;;;14.40;;
37355;SDS011;48747;50.250;18.848;2023-05-07T00:50:00;20.62;;;14.30;;
37355;SDS011;48747;50.250;18.848;2023-05-07T00:52:05;24.00;;;14.93;;
37355;SDS011;48747;50.250;18.848;2023-05-07T00:54:11;22.35;;;14.90;;
37355;SDS011;48747;50.250;18.848;2023-05-07T00:56:18;20.20;;;14.33;;
37355;SDS011;48747;50.250;18.848;2023-05-07T00:58:23;21.10;;;14.45;;
37355;SDS011;48747;50.250;18.848;2023-05-07T01:00:32;19.60;;;13.03;;
37355;SDS011;48747;50.250;18.848;2023-05-07T01:02:41;22.55;;;13.48;;
37355;SDS011;48747;50.250;18.848;2023-05-07T01:04:45;21.25;;;14.00;;
37355;SDS011;48747;50.250;18.848;2023-05-07T01:06:48;22.45;;;14.68;;
37355;SDS011;48747;50.250;18.848;2023-05-07T01:08:52;24.90;;;14.98;;
37355;SDS011;48747;50.250;18.848;2023-05-07T01:10:58;20.23;;;13.78;;
37355;SDS011;48747;50.250;18.848;2023-05-07T01:13:12;19.35;;;13.35;;
37355;SDS011;48747;50.250;18.848;2023-05-07T01:15:20;19.07;;;12.50;;
37355;SDS011;48747;50.250;18.848;2023-05-07T01:17:20;20.97;;;12.60;;
37355;SDS011;48747;50.250;18.848;2023-05-07T01:19:23;22.40;;;13.05;;
37355;SDS011;48747;50.250;18.848;2023-05-07T01:21:32;20.25;;;13.18;;
37355;SDS011;48747;50.250;18.848;2023-05-07T01:23:38;19.42;;;13.05;;
37355;SDS011;48747;50.250;18.848;2023-05-07T01:25:42;24.23;;;14.35;;
37355;SDS011;48747;50.250;18.848;2023-05-07T01:27:45;24.92;;;14.75;;
37355;SDS011;48747;50.250;18.848;2023-05-07T01:29:49;24.95;;;15.48;;
37355;SDS011;48747;50.250;18.848;2023-05-07T01:32:00;25.25;;;15.95;;
37355;SDS011;48747;50.250;18.848;2023-05-07T01:34:08;27.45;;;15.80;;
37355;SDS011;48747;50.250;18.848;2023-05-07T01:36:23;25.88;;;15.95;;
37355;SDS011;48747;50.250;18.848;2023-05-07T01:38:17;30.52;;;18.23;;
37355;SDS011;48747;50.250;18.848;2023-05-07T01:40:23;30.92;;;19.57;;
37355;SDS011;48747;50.250;18.848;2023-05-07T01:42:31;30.25;;;19.65;;
37355;SDS011;48747;50.250;18.848;2023-05-07T01:44:37;32.17;;;20.17;;
37355;SDS011;48747;50.250;18.848;2023-05-07T01:46:41;32.98;;;20.15;;
37355;SDS011;48747;50.250;18.848;2023-05-07T01:48:46;33.33;;;20.32;;
37355;SDS011;48747;50.250;18.848;2023-05-07T01:50:49;33.28;;;21.25;;
37355;SDS011;48747;50.250;18.848;2023-05-07T01:52:57;36.28;;;22.98;;
37355;SDS011;48747;50.250;18.848;2023-05-07T01:55:17;40.73;;;23.80;;
37355;SDS011;48747;50.250;18.848;2023-05-07T01:57:07;35.25;;;21.05;;
37355;SDS011;48747;50.250;18.848;2023-05-07T01:59:12;33.15;;;20.05;;
37355;SDS011;48747;50.250;18.848;2023-05-07T02:01:17;32.25;;;19.45;;
37355;SDS011;48747;50.250;18.848;2023-05-07T02:03:24;32.98;;;19.37;;
37355;SDS011;48747;50.250;18.848;2023-05-07T02:05:43;32.65;;;18.80;;
37355;SDS011;48747;50.250;18.848;2023-05-07T02:07:37;34.33;;;18.25;;
37355;SDS011;48747;50.250;18.848;2023-05-07T02:09:46;29.25;;;18.55;;
37355;SDS011;48747;50.250;18.848;2023-05-07T02:11:47;33.92;;;18.87;;
37355;SDS011;48747;50.250;18.848;2023-05-07T02:13:57;38.00;;;21.55;;
37355;SDS011;48747;50.250;18.848;2023-05-07T02:15:58;43.60;;;21.35;;
37355;SDS011;48747;50.250;18.848;2023-05-07T02:18:07;42.08;;;20.97;;
37355;SDS011;48747;50.250;18.848;2023-05-07T02:20:11;37.20;;;19.95;;
37355;SDS011;48747;50.250;18.848;2023-05-07T02:22:18;41.77;;;22.60;;
37355;SDS011;48747;50.250;18.848;2023-05-07T02:24:27;50.33;;;27.73;;
37355;SDS011;48747;50.250;18.848;2023-05-07T02:26:29;43.65;;;24.32;;
37355;SDS011;48747;50.250;18.848;2023-05-07T02:28:34;40.50;;;22.48;;
37355;SDS011;48747;50.250;18.848;2023-05-07T02:30:38;34.70;;;21.02;;
37355;SDS011;48747;50.250;18.848;2023-05-07T02:32:43;34.73;;;20.20;;
37355;SDS011;48747;50.250;18.848;2023-05-07T02:34:46;30.68;;;20.77;;
37355;SDS011;48747;50.250;18.848;2023-05-07T02:36:56;30.37;;;20.25;;
37355;SDS011;48747;50.250;18.848;2023-05-07T02:38:59;34.50;;;20.90;;
37355;SDS011;48747;50.250;18.848;2023-05-07T02:41:04;41.88;;;24.20;;
37355;SDS011;48747;50.250;18.848;2023-05-07T02:43:10;61.18;;;33.18;;
37355;SDS011;48747;50.250;18.848;2023-05-07T02:45:17;71.95;;;39.08;;
37355;SDS011;48747;50.250;18.848;2023-05-07T02:47:24;79.03;;;41.20;;
37355;SDS011;48747;50.250;18.848;2023-05-07T02:49:36;72.27;;;37.70;;
37355;SDS011;48747;50.250;18.848;2023-05-07T02:51:37;56.28;;;31.37;;
37355;SDS011;48747;50.250;18.848;2023-05-07T02:53:40;61.10;;;29.87;;
37355;SDS011;48747;50.250;18.848;2023-05-07T02:55:48;48.65;;;28.90;;
37355;SDS011;48747;50.250;18.848;2023-05-07T02:57:55;42.65;;;25.02;;
37355;SDS011;48747;50.250;18.848;2023-05-07T02:59:58;40.75;;;25.43;;
37355;SDS011;48747;50.250;18.848;2023-05-07T03:02:01;36.93;;;22.67;;
37355;SDS011;48747;50.250;18.848;2023-05-07T03:04:04;34.58;;;19.17;;
37355;SDS011;48747;50.250;18.848;2023-05-07T03:06:07;29.10;;;18.67;;
37355;SDS011;48747;50.250;18.848;2023-05-07T03:08:18;28.12;;;15.15;;
37355;SDS011;48747;50.250;18.848;2023-05-07T03:10:21;22.07;;;13.93;;
37355;SDS011;48747;50.250;18.848;2023-05-07T03:12:28;21.60;;;13.45;;
37355;SDS011;48747;50.250;18.848;2023-05-07T03:14:30;16.30;;;10.78;;
37355;SDS011;48747;50.250;18.848;2023-05-07T03:16:35;14.23;;;9.00;;
37355;SDS011;48747;50.250;18.848;2023-05-07T03:18:42;12.53;;;8.48;;
37355;SDS011;48747;50.250;18.848;2023-05-07T03:20:47;12.10;;;8.65;;
37355;SDS011;48747;50.250;18.848;2023-05-07T03:22:51;12.50;;;7.17;;
37355;SDS011;48747;50.250;18.848;2023-05-07T03:24:54;11.93;;;7.08;;
37355;SDS011;48747;50.250;18.848;2023-05-07T03:26:59;12.80;;;8.33;;
37355;SDS011;48747;50.250;18.848;2023-05-07T03:29:02;10.80;;;6.97;;
37355;SDS011;48747;50.250;18.848;2023-05-07T03:31:17;11.80;;;6.40;;
37355;SDS011;48747;50.250;18.848;2023-05-07T03:33:17;9.60;;;5.78;;
37355;SDS011;48747;50.250;18.848;2023-05-07T03:35:25;8.35;;;4.90;;
37355;SDS011;48747;50.250;18.848;2023-05-07T03:37:31;9.65;;;5.70;;
37355;SDS011;48747;50.250;18.848;2023-05-07T03:39:34;9.53;;;6.30;;
37355;SDS011;48747;50.250;18.848;2023-05-07T03:41:39;8.15;;;5.50;;
37355;SDS011;48747;50.250;18.848;2023-05-07T03:43:42;11.40;;;6.03;;
37355;SDS011;48747;50.250;18.848;2023-05-07T03:45:45;8.55;;;5.17;;
37355;SDS011;48747;50.250;18.848;2023-05-07T03:47:50;6.30;;;4.95;;
37355;SDS011;48747;50.250;18.848;2023-05-07T03:49:53;9.20;;;5.33;;
37355;SDS011;48747;50.250;18.848;2023-05-07T03:52:01;6.53;;;4.60;;
37355;SDS011;48747;50.250;18.848;2023-05-07T03:54:05;6.47;;;3.70;;
37355;SDS011;48747;50.250;18.848;2023-05-07T03:56:10;6.70;;;4.45;;
37355;SDS011;48747;50.250;18.848;2023-05-07T03:58:15;4.92;;;3.98;;
37355;SDS011;48747;50.250;18.848;2023-05-07T04:00:22;6.40;;;3.62;;
37355;SDS011;48747;50.250;18.848;2023-05-07T04:02:32;7.08;;;3.98;;
37355;SDS011;48747;50.250;18.848;2023-05-07T04:04:39;5.65;;;3.92;;
37355;SDS011;48747;50.250;18.848;2023-05-07T04:06:45;5.17;;;3.75;;
37355;SDS011;48747;50.250;18.848;2023-05-07T04:08:54;7.45;;;4.80;;
37355;SDS011;48747;50.250;18.848;2023-05-07T04:10:56;7.30;;;4.55;;
37355;SDS011;48747;50.250;18.848;2023-05-07T04:13:05;5.90;;;4.20;;
37355;SDS011;48747;50.250;18.848;2023-05-07T04:15:09;8.75;;;5.05;;
37355;SDS011;48747;50.250;18.848;2023-05-07T04:17:16;7.78;;;6.65;;
37355;SDS011;48747;50.250;18.848;2023-05-07T04:19:19;9.23;;;7.22;;
37355;SDS011;48747;50.250;18.848;2023-05-07T04:21:22;8.45;;;6.45;;
37355;SDS011;48747;50.250;18.848;2023-05-07T04:23:27;9.63;;;6.20;;
37355;SDS011;48747;50.250;18.848;2023-05-07T04:25:33;9.08;;;6.12;;
37355;SDS011;48747;50.250;18.848;2023-05-07T04:27:37;7.75;;;4.95;;
37355;SDS011;48747;50.250;18.848;2023-05-07T04:29:42;8.98;;;7.25;;
37355;SDS011;48747;50.250;18.848;2023-05-07T04:31:46;12.00;;;7.30;;
37355;SDS011;48747;50.250;18.848;2023-05-07T04:33:51;8.70;;;6.17;;
37355;SDS011;48747;50.250;18.848;2023-05-07T04:35:54;8.80;;;5.80;;
37355;SDS011;48747;50.250;18.848;2023-05-07T04:38:05;8.13;;;5.30;;
37355;SDS011;48747;50.250;18.848;2023-05-07T04:40:13;7.42;;;5.47;;
37355;SDS011;48747;50.250;18.848;2023-05-07T04:42:16;7.85;;;4.70;;
37355;SDS011;48747;50.250;18.848;2023-05-07T04:44:20;9.40;;;5.22;;
37355;SDS011;48747;50.250;18.848;2023-05-07T04:46:25;8.58;;;4.90;;
37355;SDS011;48747;50.250;18.848;2023-05-07T04:48:28;8.48;;;4.90;;
37355;SDS011;48747;50.250;18.848;2023-05-07T04:50:31;6.85;;;4.40;;
37355;SDS011;48747;50.250;18.848;2023-05-07T04:52:34;6.87;;;3.52;;
37355;SDS011;48747;50.250;18.848;2023-05-07T04:54:39;5.92;;;3.65;;
37355;SDS011;48747;50.250;18.848;2023-05-07T04:56:46;6.35;;;3.72;;
37355;SDS011;48747;50.250;18.848;2023-05-07T04:58:50;6.62;;;3.72;;
37355;SDS011;48747;50.250;18.848;2023-05-07T05:00:55;6.60;;;3.58;;
37355;SDS011;48747;50.250;18.848;2023-05-07T05:03:02;7.67;;;4.55;;
37355;SDS011;48747;50.250;18.848;2023-05-07T05:05:04;7.10;;;4.42;;
37355;SDS011;48747;50.250;18.848;2023-05-07T05:07:09;5.83;;;4.28;;
37355;SDS011;48747;50.250;18.848;2023-05-07T05:09:13;10.23;;;6.00;;
37355;SDS011;48747;50.250;18.848;2023-05-07T05:11:19;8.65;;;4.30;;
37355;SDS011;48747;50.250;18.848;2023-05-07T05:13:24;6.12;;;4.20;;
37355;SDS011;48747;50.250;18.848;2023-05-07T05:15:29;7.35;;;4.22;;
37355;SDS011;48747;50.250;18.848;2023-05-07T05:17:32;8.18;;;4.50;;
37355;SDS011;48747;50.250;18.848;2023-05-07T05:19:37;7.67;;;4.55;;
37355;SDS011;48747;50.250;18.848;2023-05-07T05:21:40;7.65;;;4.92;;
37355;SDS011;48747;50.250;18.848;2023-05-07T05:23:43;6.62;;;4.50;;
37355;SDS011;48747;50.250;18.848;2023-05-07T05:25:46;7.40;;;5.00;;
37355;SDS011;48747;50.250;18.848;2023-05-07T05:27:49;11.45;;;8.00;;
37355;SDS011;48747;50.250;18.848;2023-05-07T05:29:52;7.60;;;5.90;;
37355;SDS011;48747;50.250;18.848;2023-05-07T05:31:59;6.60;;;4.50;;
37355;SDS011;48747;50.250;18.848;2023-05-07T05:34:00;6.97;;;4.30;;
37355;SDS011;48747;50.250;18.848;2023-05-07T05:36:08;6.90;;;5.22;;
37355;SDS011;48747;50.250;18.848;2023-05-07T05:38:14;7.08;;;4.78;;
37355;SDS011;48747;50.250;18.848;2023-05-07T05:40:18;6.20;;;4.28;;
37355;SDS011;48747;50.250;18.848;2023-05-07T05:42:27;5.10;;;3.70;;
37355;SDS011;48747;50.250;18.848;2023-05-07T05:44:26;6.35;;;4.45;;
37355;SDS011;48747;50.250;18.848;2023-05-07T05:46:38;5.33;;;4.00;;
37355;SDS011;48747;50.250;18.848;2023-05-07T05:48:37;5.70;;;3.95;;
37355;SDS011;48747;50.250;18.848;2023-05-07T05:50:42;6.28;;;4.30;;
37355;SDS011;48747;50.250;18.848;2023-05-07T05:52:45;5.40;;;4.00;;
37355;SDS011;48747;50.250;18.848;2023-05-07T05:54:48;5.67;;;4.60;;
37355;SDS011;48747;50.250;18.848;2023-05-07T05:56:52;7.72;;;4.72;;
37355;SDS011;48747;50.250;18.848;2023-05-07T05:58:57;7.53;;;5.15;;
37355;SDS011;48747;50.250;18.848;2023-05-07T06:01:08;8.55;;;5.55;;
37355;SDS011;48747;50.250;18.848;2023-05-07T06:03:15;7.15;;;5.30;;
37355;SDS011;48747;50.250;18.848;2023-05-07T06:05:22;7.45;;;5.05;;
37355;SDS011;48747;50.250;18.848;2023-05-07T06:07:25;7.15;;;6.00;;
37355;SDS011;48747;50.250;18.848;2023-05-07T06:09:29;8.18;;;6.03;;
37355;SDS011;48747;50.250;18.848;2023-05-07T06:11:34;9.98;;;6.45;;
37355;SDS011;48747;50.250;18.848;2023-05-07T06:13:39;12.30;;;7.08;;
37355;SDS011;48747;50.250;18.848;2023-05-07T06:15:44;13.00;;;8.68;;
37355;SDS011;48747;50.250;18.848;2023-05-07T06:17:49;14.38;;;9.48;;
37355;SDS011;48747;50.250;18.848;2023-05-07T06:19:58;15.38;;;10.23;;
37355;SDS011;48747;50.250;18.848;2023-05-07T06:22:03;17.90;;;11.65;;
37355;SDS011;48747;50.250;18.848;2023-05-07T06:24:06;15.78;;;10.45;;
37355;SDS011;48747;50.250;18.848;2023-05-07T06:26:11;16.55;;;10.18;;
37355;SDS011;48747;50.250;18.848;2023-05-07T06:28:14;14.05;;;8.33;;
37355;SDS011;48747;50.250;18.848;2023-05-07T06:30:17;8.50;;;6.25;;
37355;SDS011;48747;50.250;18.848;2023-05-07T06:32:21;7.37;;;4.72;;
37355;SDS011;48747;50.250;18.848;2023-05-07T06:34:26;6.53;;;4.10;;
37355;SDS011;48747;50.250;18.848;2023-05-07T06:36:28;6.17;;;4.08;;
37355;SDS011;48747;50.250;18.848;2023-05-07T06:38:31;6.35;;;3.90;;
37355;SDS011;48747;50.250;18.848;2023-05-07T06:40:36;6.30;;;3.87;;
37355;SDS011;48747;50.250;18.848;2023-05-07T06:42:39;6.92;;;4.50;;
37355;SDS011;48747;50.250;18.848;2023-05-07T06:44:49;6.22;;;3.65;;
37355;SDS011;48747;50.250;18.848;2023-05-07T07:02:07;7.08;;;5.60;;
37355;SDS011;48747;50.250;18.848;2023-05-07T07:11:04;5.28;;;3.70;;
37355;SDS011;48747;50.250;18.848;2023-05-07T07:19:47;5.45;;;3.80;;
37355;SDS011;48747;50.250;18.848;2023-05-07T07:24:13;4.75;;;3.50;;
37355;SDS011;48747;50.250;18.848;2023-05-07T07:26:39;6.10;;;3.33;;
37355;SDS011;48747;50.250;18.848;2023-05-07T07:30:59;4.42;;;2.70;;
37355;SDS011;48747;50.250;18.848;2023-05-07T07:33:10;5.87;;;2.67;;
37355;SDS011;48747;50.250;18.848;2023-05-07T07:35:07;6.45;;;3.05;;
37355;SDS011;48747;50.250;18.848;2023-05-07T07:39:35;6.05;;;2.80;;
37355;SDS011;48747;50.250;18.848;2023-05-07T07:41:39;5.28;;;3.05;;
37355;SDS011;48747;50.250;18.848;2023-05-07T07:43:46;6.75;;;4.05;;
37355;SDS011;48747;50.250;18.848;2023-05-07T07:45:53;4.92;;;3.37;;
37355;SDS011;48747;50.250;18.848;2023-05-07T07:50:23;7.97;;;4.60;;
37355;SDS011;48747;50.250;18.848;2023-05-07T07:52:31;10.28;;;3.52;;
37355;SDS011;48747;50.250;18.848;2023-05-07T07:56:32;4.35;;;2.62;;
37355;SDS011;48747;50.250;18.848;2023-05-07T08:05:50;8.65;;;5.53;;
37355;SDS011;48747;50.250;18.848;2023-05-07T08:07:53;7.80;;;3.62;;
37355;SDS011;48747;50.250;18.848;2023-05-07T08:14:13;5.83;;;3.40;;
37355;SDS011;48747;50.250;18.848;2023-05-07T08:18:45;5.92;;;3.52;;
37355;SDS011;48747;50.250;18.848;2023-05-07T08:23:21;5.62;;;3.55;;
37355;SDS011;48747;50.250;18.848;2023-05-07T08:32:03;7.60;;;3.83;;
37355;SDS011;48747;50.250;18.848;2023-05-07T08:37:30;4.33;;;2.47;;
37355;SDS011;48747;50.250;18.848;2023-05-07T08:41:25;5.12;;;3.35;;
37355;SDS011;48747;50.250;18.848;2023-05-07T08:52:21;6.47;;;4.80;;
37355;SDS011;48747;50.250;18.848;2023-05-07T08:54:39;10.50;;;5.12;;
37355;SDS011;48747;50.250;18.848;2023-05-07T09:03:57;9.15;;;7.03;;
37355;SDS011;48747;50.250;18.848;2023-05-07T09:15:25;10.30;;;6.58;;
37355;SDS011;48747;50.250;18.848;2023-05-07T09:21:52;5.78;;;4.17;;
37355;SDS011;48747;50.250;18.848;2023-05-07T09:35:14;4.80;;;3.72;;
37355;SDS011;48747;50.250;18.848;2023-05-07T09:37:39;5.00;;;3.52;;
37355;SDS011;48747;50.250;18.848;2023-05-07T09:44:19;8.30;;;4.72;;
37355;SDS011;48747;50.250;18.848;2023-05-07T09:49:05;6.03;;;4.10;;
37355;SDS011;48747;50.250;18.848;2023-05-07T09:56:04;6.47;;;4.45;;
37355;SDS011;48747;50.250;18.848;2023-05-07T10:00:30;8.43;;;4.90;;
37355;SDS011;48747;50.250;18.848;2023-05-07T10:04:55;8.05;;;5.80;;
37355;SDS011;48747;50.250;18.848;2023-05-07T10:11:54;9.73;;;6.03;;
37355;SDS011;48747;50.250;18.848;2023-05-07T10:13:49;8.63;;;5.10;;
37355;SDS011;48747;50.250;18.848;2023-05-07T10:20:29;11.70;;;7.12;;
37355;SDS011;48747;50.250;18.848;2023-05-07T10:22:47;10.10;;;5.90;;
37355;SDS011;48747;50.250;18.848;2023-05-07T10:24:52;9.55;;;5.28;;
37355;SDS011;48747;50.250;18.848;2023-05-07T10:26:56;8.83;;;6.00;;
37355;SDS011;48747;50.250;18.848;2023-05-07T10:29:28;8.25;;;5.95;;
37355;SDS011;48747;50.250;18.848;2023-05-07T10:34:06;9.20;;;6.17;;
37355;SDS011;48747;50.250;18.848;2023-05-07T10:38:26;8.25;;;5.85;;
37355;SDS011;48747;50.250;18.848;2023-05-07T10:40:42;8.90;;;6.85;;
37355;SDS011;48747;50.250;18.848;2023-05-07T10:54:25;9.30;;;6.85;;
37355;SDS011;48747;50.250;18.848;2023-05-07T10:56:43;10.85;;;7.25;;
37355;SDS011;48747;50.250;18.848;2023-05-07T11:06:22;5.92;;;3.85;;
37355;SDS011;48747;50.250;18.848;2023-05-07T11:16:17;6.80;;;4.03;;
37355;SDS011;48747;50.250;18.848;2023-05-07T11:25:49;5.97;;;4.08;;
37355;SDS011;48747;50.250;18.848;2023-05-07T11:27:50;6.62;;;4.70;;
37355;SDS011;48747;50.250;18.848;2023-05-07T11:29:59;7.05;;;4.42;;
37355;SDS011;48747;50.250;18.848;2023-05-07T11:32:12;7.37;;;5.17;;
37355;SDS011;48747;50.250;18.848;2023-05-07T11:36:34;6.70;;;4.85;;
37355;SDS011;48747;50.250;18.848;2023-05-07T11:42:56;8.90;;;7.35;;
37355;SDS011;48747;50.250;18.848;2023-05-07T11:45:02;8.40;;;6.42;;
37355;SDS011;48747;50.250;18.848;2023-05-07T11:47:10;7.20;;;5.85;;
37355;SDS011;48747;50.250;18.848;2023-05-07T11:51:31;8.78;;;6.15;;
37355;SDS011;48747;50.250;18.848;2023-05-07T11:53:37;9.23;;;6.08;;
37355;SDS011;48747;50.250;18.848;2023-05-07T11:55:44;6.85;;;4.95;;
37355;SDS011;48747;50.250;18.848;2023-05-07T12:17:24;10.68;;;9.30;;
37355;SDS011;48747;50.250;18.848;2023-05-07T12:19:31;13.18;;;9.75;;
37355;SDS011;48747;50.250;18.848;2023-05-07T15:50:54;9.65;;;5.28;;
37355;SDS011;48747;50.250;18.848;2023-05-07T15:53:03;8.63;;;5.10;;
37355;SDS011;48747;50.250;18.848;2023-05-07T15:57:55;12.88;;;7.47;;
37355;SDS011;48747;50.250;18.848;2023-05-07T16:10:11;8.25;;;5.45;;
37355;SDS011;48747;50.250;18.848;2023-05-07T16:25:12;13.48;;;6.95;;
37355;SDS011;48747;50.250;18.848;2023-05-07T16:37:40;11.05;;;7.00;;
37355;SDS011;48747;50.250;18.848;2023-05-07T16:39:37;12.03;;;8.13;;
37355;SDS011;48747;50.250;18.848;2023-05-07T16:41:46;14.53;;;9.48;;
37355;SDS011;48747;50.250;18.848;2023-05-07T17:00:00;11.33;;;7.97;;
37355;SDS011;48747;50.250;18.848;2023-05-07T17:05:03;12.37;;;7.53;;
37355;SDS011;48747;50.250;18.848;2023-05-07T17:07:09;11.38;;;7.35;;
37355;SDS011;48747;50.250;18.848;2023-05-07T17:09:13;10.68;;;7.17;;
37355;SDS011;48747;50.250;18.848;2023-05-07T17:13:55;11.68;;;7.10;;
37355;SDS011;48747;50.250;18.848;2023-05-07T17:16:06;14.25;;;7.37;;
37355;SDS011;48747;50.250;18.848;2023-05-07T17:18:09;11.08;;;6.87;;
37355;SDS011;48747;50.250;18.848;2023-05-07T17:20:26;12.20;;;6.75;;
37355;SDS011;48747;50.250;18.848;2023-05-07T17:24:59;11.83;;;6.92;;
37355;SDS011;48747;50.250;18.848;2023-05-07T17:27:04;10.60;;;6.65;;
37355;SDS011;48747;50.250;18.848;2023-05-07T17:29:17;9.30;;;6.47;;
37355;SDS011;48747;50.250;18.848;2023-05-07T17:31:23;18.12;;;7.47;;
37355;SDS011;48747;50.250;18.848;2023-05-07T17:35:32;12.23;;;7.35;;
37355;SDS011;48747;50.250;18.848;2023-05-07T17:39:59;10.28;;;6.85;;
37355;SDS011;48747;50.250;18.848;2023-05-07T17:42:07;9.88;;;6.58;;
37355;SDS011;48747;50.250;18.848;2023-05-07T17:44:12;13.30;;;7.95;;
37355;SDS011;48747;50.250;18.848;2023-05-07T17:46:19;13.00;;;7.37;;
37355;SDS011;48747;50.250;18.848;2023-05-07T17:48:20;9.95;;;6.95;;
37355;SDS011;48747;50.250;18.848;2023-05-07T17:50:37;11.85;;;8.08;;
37355;SDS011;48747;50.250;18.848;2023-05-07T17:55:42;16.35;;;8.90;;
37355;SDS011;48747;50.250;18.848;2023-05-07T18:04:58;11.28;;;6.45;;
37355;SDS011;48747;50.250;18.848;2023-05-07T18:17:08;16.05;;;8.88;;
37355;SDS011;48747;50.250;18.848;2023-05-07T18:19:18;15.00;;;8.23;;
37355;SDS011;48747;50.250;18.848;2023-05-07T18:23:52;11.68;;;7.42;;
37355;SDS011;48747;50.250;18.848;2023-05-07T18:26:08;15.23;;;7.42;;
37355;SDS011;48747;50.250;18.848;2023-05-07T18:28:04;10.38;;;7.12;;
37355;SDS011;48747;50.250;18.848;2023-05-07T18:30:09;12.65;;;8.58;;
37355;SDS011;48747;50.250;18.848;2023-05-07T18:32:12;9.80;;;7.20;;
37355;SDS011;48747;50.250;18.848;2023-05-07T18:34:31;41.23;;;19.52;;
37355;SDS011;48747;50.250;18.848;2023-05-07T18:36:25;22.00;;;13.40;;
37355;SDS011;48747;50.250;18.848;2023-05-07T18:38:29;16.15;;;9.78;;
37355;SDS011;48747;50.250;18.848;2023-05-07T18:40:34;12.63;;;8.65;;
37355;SDS011;48747;50.250;18.848;2023-05-07T18:42:38;13.08;;;9.03;;
37355;SDS011;48747;50.250;18.848;2023-05-07T18:44:42;12.93;;;8.43;;
37355;SDS011;48747;50.250;18.848;2023-05-07T18:46:45;9.90;;;6.50;;
37355;SDS011;48747;50.250;18.848;2023-05-07T18:48:49;11.90;;;6.47;;
37355;SDS011;48747;50.250;18.848;2023-05-07T18:53:06;10.10;;;6.95;;
37355;SDS011;48747;50.250;18.848;2023-05-07T18:55:12;10.00;;;7.60;;
37355;SDS011;48747;50.250;18.848;2023-05-07T18:57:21;10.95;;;6.00;;
37355;SDS011;48747;50.250;18.848;2023-05-07T18:59:31;7.87;;;5.72;;
37355;SDS011;48747;50.250;18.848;2023-05-07T19:01:32;10.70;;;6.28;;
37355;SDS011;48747;50.250;18.848;2023-05-07T19:03:35;9.88;;;6.20;;
37355;SDS011;48747;50.250;18.848;2023-05-07T19:05:38;9.55;;;5.67;;
37355;SDS011;48747;50.250;18.848;2023-05-07T19:07:42;9.68;;;6.33;;
37355;SDS011;48747;50.250;18.848;2023-05-07T19:09:47;9.40;;;6.15;;
37355;SDS011;48747;50.250;18.848;2023-05-07T19:11:52;15.13;;;5.75;;
37355;SDS011;48747;50.250;18.848;2023-05-07T19:13:59;8.48;;;5.92;;
37355;SDS011;48747;50.250;18.848;2023-05-07T19:16:02;9.75;;;5.97;;
37355;SDS011;48747;50.250;18.848;2023-05-07T19:18:07;10.48;;;6.17;;
37355;SDS011;48747;50.250;18.848;2023-05-07T19:20:12;8.65;;;6.17;;
37355;SDS011;48747;50.250;18.848;2023-05-07T19:22:26;8.70;;;6.08;;
37355;SDS011;48747;50.250;18.848;2023-05-07T19:24:30;10.35;;;6.10;;
37355;SDS011;48747;50.250;18.848;2023-05-07T19:26:34;11.40;;;5.47;;
37355;SDS011;48747;50.250;18.848;2023-05-07T19:28:42;10.43;;;5.58;;
37355;SDS011;48747;50.250;18.848;2023-05-07T19:30:51;13.05;;;6.12;;
37355;SDS011;48747;50.250;18.848;2023-05-07T19:32:54;8.15;;;6.00;;
37355;SDS011;48747;50.250;18.848;2023-05-07T19:34:59;11.38;;;6.60;;
37355;SDS011;48747;50.250;18.848;2023-05-07T19:37:12;8.75;;;6.00;;
37355;SDS011;48747;50.250;18.848;2023-05-07T19:39:10;8.58;;;5.83;;
37355;SDS011;48747;50.250;18.848;2023-05-07T19:41:26;10.93;;;6.37;;
37355;SDS011;48747;50.250;18.848;2023-05-07T19:43:25;10.30;;;6.37;;
37355;SDS011;48747;50.250;18.848;2023-05-07T19:45:31;9.38;;;5.90;;
37355;SDS011;48747;50.250;18.848;2023-05-07T19:47:35;10.85;;;6.47;;
37355;SDS011;48747;50.250;18.848;2023-05-07T19:49:41;8.80;;;5.92;;
37355;SDS011;48747;50.250;18.848;2023-05-07T19:51:46;9.78;;;6.10;;
37355;SDS011;48747;50.250;18.848;2023-05-07T19:53:53;12.10;;;6.15;;
37355;SDS011;48747;50.250;18.848;2023-05-07T19:56:04;10.88;;;5.95;;
37355;SDS011;48747;50.250;18.848;2023-05-07T19:58:08;10.68;;;6.42;;
37355;SDS011;48747;50.250;18.848;2023-05-07T20:00:16;9.10;;;6.05;;
37355;SDS011;48747;50.250;18.848;2023-05-07T20:02:24;9.15;;;6.17;;
37355;SDS011;48747;50.250;18.848;2023-05-07T20:04:30;11.50;;;7.12;;
37355;SDS011;48747;50.250;18.848;2023-05-07T20:06:37;10.82;;;6.10;;
37355;SDS011;48747;50.250;18.848;2023-05-07T20:08:40;11.10;;;6.62;;
37355;SDS011;48747;50.250;18.848;2023-05-07T20:10:45;11.90;;;7.15;;
37355;SDS011;48747;50.250;18.848;2023-05-07T20:12:54;10.05;;;6.67;;
37355;SDS011;48747;50.250;18.848;2023-05-07T20:14:57;9.53;;;6.22;;
37355;SDS011;48747;50.250;18.848;2023-05-07T20:17:00;9.70;;;5.80;;
37355;SDS011;48747;50.250;18.848;2023-05-07T20:19:09;12.07;;;6.30;;
37355;SDS011;48747;50.250;18.848;2023-05-07T20:21:25;9.78;;;6.15;;
37355;SDS011;48747;50.250;18.848;2023-05-07T20:26:13;9.10;;;5.50;;
37355;SDS011;48747;50.250;18.848;2023-05-07T20:28:34;10.70;;;5.65;;
37355;SDS011;48747;50.250;18.848;2023-05-07T20:30:26;8.58;;;5.50;;
37355;SDS011;48747;50.250;18.848;2023-05-07T20:32:31;10.70;;;5.50;;
37355;SDS011;48747;50.250;18.848;2023-05-07T20:34:38;8.28;;;5.30;;
37355;SDS011;48747;50.250;18.848;2023-05-07T20:36:40;9.75;;;6.20;;
37355;SDS011;48747;50.250;18.848;2023-05-07T20:38:45;10.75;;;6.30;;
37355;SDS011;48747;50.250;18.848;2023-05-07T20:40:48;8.55;;;5.35;;
37355;SDS011;48747;50.250;18.848;2023-05-07T20:42:53;8.48;;;5.80;;
37355;SDS011;48747;50.250;18.848;2023-05-07T20:44:56;11.35;;;6.45;;